sensor_id;sensor_type;location;lat;lon;timestamp;pressure;altitude;pressure_sealevel;temperature;humidity
9774;BME280;4926;42.670;23.316;2024-01-06T00:00:25;94364.69;;;6.24;73.03
9774;BME280;4926;42.670;23.316;2024-01-06T00:02:51;94364.69;;;6.24;72.48
9774;BME280;4926;42.670;23.316;2024-01-06T00:05:16;94364.81;;;6.28;72.71
9774;BME280;4926;42.670;23.316;2024-01-06T00:07:42;94362.22;;;6.36;72.33
9774;BME280;4926;42.670;23.316;2024-01-06T00:10:07;94352.44;;;6.31;72.18
9774;BME280;4926;42.670;23.316;2024-01-06T00:12:34;94322.09;;;6.37;72.28
9774;BME280;4926;42.670;23.316;2024-01-06T00:15:00;94337.47;;;6.42;71.74
9774;BME280;4926;42.670;23.316;2024-01-06T00:17:27;94356.28;;;6.48;71.38
9774;BME280;4926;42.670;23.316;2024-01-06T00:19:56;94365.28;;;6.48;71.19
9774;BME280;4926;42.670;23.316;2024-01-06T00:22:21;94380.34;;;6.41;71.39
9774;BME280;4926;42.670;23.316;2024-01-06T00:24:47;94372.06;;;6.41;70.96
9774;BME280;4926;42.670;23.316;2024-01-06T00:27:13;94366.66;;;6.47;70.67
9774;BME280;4926;42.670;23.316;2024-01-06T00:29:39;94357.09;;;6.52;70.73
9774;BME280;4926;42.670;23.316;2024-01-06T00:32:05;94359.19;;;6.54;71.06
9774;BME280;4926;42.670;23.316;2024-01-06T00:34:30;94381.50;;;6.60;69.56
9774;BME280;4926;42.670;23.316;2024-01-06T00:36:56;94379.41;;;6.58;69.19
9774;BME280;4926;42.670;23.316;2024-01-06T00:39:21;94367.56;;;6.56;69.30
9774;BME280;4926;42.670;23.316;2024-01-06T00:41:47;94362.78;;;6.58;70.72
9774;BME280;4926;42.670;23.316;2024-01-06T00:44:15;94371.53;;;6.49;69.71
9774;BME280;4926;42.670;23.316;2024-01-06T00:46:44;94377.06;;;6.49;70.47
9774;BME280;4926;42.670;23.316;2024-01-06T00:49:10;94356.19;;;6.44;69.99
9774;BME280;4926;42.670;23.316;2024-01-06T00:51:36;94347.97;;;6.48;69.49
9774;BME280;4926;42.670;23.316;2024-01-06T00:54:01;94342.41;;;6.46;69.65
9774;BME280;4926;42.670;23.316;2024-01-06T00:56:27;94359.56;;;6.40;70.77
9774;BME280;4926;42.670;23.316;2024-01-06T00:58:52;94356.75;;;6.38;69.49
9774;BME280;4926;42.670;23.316;2024-01-06T01:01:18;94353.88;;;6.34;70.68
9774;BME280;4926;42.670;23.316;2024-01-06T01:03:44;94355.34;;;6.37;69.92
9774;BME280;4926;42.670;23.316;2024-01-06T01:06:09;94353.69;;;6.26;70.55
9774;BME280;4926;42.670;23.316;2024-01-06T01:08:35;94354.44;;;6.28;71.04
9774;BME280;4926;42.670;23.316;2024-01-06T01:11:00;94371.69;;;6.27;71.75
9774;BME280;4926;42.670;23.316;2024-01-06T01:13:26;94364.19;;;6.03;71.70
9774;BME280;4926;42.670;23.316;2024-01-06T01:15:55;94349.38;;;5.93;72.09
9774;BME280;4926;42.670;23.316;2024-01-06T01:18:21;94347.22;;;5.89;71.61
9774;BME280;4926;42.670;23.316;2024-01-06T01:20:46;94349.44;;;5.95;72.58
9774;BME280;4926;42.670;23.316;2024-01-06T01:23:12;94352.63;;;5.85;72.38
9774;BME280;4926;42.670;23.316;2024-01-06T01:25:37;94347.72;;;5.84;73.38
9774;BME280;4926;42.670;23.316;2024-01-06T01:28:04;94342.44;;;5.92;72.57
9774;BME280;4926;42.670;23.316;2024-01-06T01:30:29;94344.53;;;5.93;71.93
9774;BME280;4926;42.670;23.316;2024-01-06T01:32:55;94331.47;;;5.96;72.96
9774;BME280;4926;42.670;23.316;2024-01-06T01:35:20;94335.06;;;6.00;71.98
9774;BME280;4926;42.670;23.316;2024-01-06T01:37:46;94334.50;;;6.06;70.96
9774;BME280;4926;42.670;23.316;2024-01-06T01:40:11;94324.13;;;6.07;72.35
9774;BME280;4926;42.670;23.316;2024-01-06T01:42:37;94325.94;;;5.96;72.58
9774;BME280;4926;42.670;23.316;2024-01-06T01:45:04;94332.06;;;5.92;72.93
9774;BME280;4926;42.670;23.316;2024-01-06T01:47:29;94318.06;;;5.86;73.34
9774;BME280;4926;42.670;23.316;2024-01-06T01:49:55;94321.63;;;5.89;72.52
9774;BME280;4926;42.670;23.316;2024-01-06T01:52:27;94316.81;;;5.91;72.67
9774;BME280;4926;42.670;23.316;2024-01-06T01:54:53;94312.03;;;5.94;72.08
9774;BME280;4926;42.670;23.316;2024-01-06T01:57:19;94308.50;;;5.91;73.26
9774;BME280;4926;42.670;23.316;2024-01-06T01:59:46;94312.03;;;5.94;73.19
9774;BME280;4926;42.670;23.316;2024-01-06T02:02:13;94312.63;;;5.90;72.28
9774;BME280;4926;42.670;23.316;2024-01-06T02:04:42;94308.13;;;5.77;73.87
9774;BME280;4926;42.670;23.316;2024-01-06T02:07:07;94309.06;;;5.60;74.04
9774;BME280;4926;42.670;23.316;2024-01-06T02:09:33;94300.94;;;5.66;73.99
9774;BME280;4926;42.670;23.316;2024-01-06T02:11:58;94292.88;;;5.76;72.72
9774;BME280;4926;42.670;23.316;2024-01-06T02:14:24;94279.22;;;5.82;72.92
9774;BME280;4926;42.670;23.316;2024-01-06T02:16:50;94273.41;;;5.98;73.96
9774;BME280;4926;42.670;23.316;2024-01-06T02:19:16;94281.00;;;5.97;73.15
9774;BME280;4926;42.670;23.316;2024-01-06T02:21:44;94292.56;;;5.90;73.99
9774;BME280;4926;42.670;23.316;2024-01-06T02:24:10;94281.94;;;5.80;74.13
9774;BME280;4926;42.670;23.316;2024-01-06T02:26:38;94282.25;;;5.92;72.52
9774;BME280;4926;42.670;23.316;2024-01-06T02:29:04;94266.75;;;5.81;72.68
9774;BME280;4926;42.670;23.316;2024-01-06T02:31:29;94264.91;;;5.64;73.90
9774;BME280;4926;42.670;23.316;2024-01-06T02:33:54;94246.59;;;5.51;73.10
9774;BME280;4926;42.670;23.316;2024-01-06T02:36:20;94261.63;;;5.18;73.45
9774;BME280;4926;42.670;23.316;2024-01-06T02:38:51;94253.50;;;5.24;74.44
9774;BME280;4926;42.670;23.316;2024-01-06T02:41:17;94260.69;;;5.35;73.89
9774;BME280;4926;42.670;23.316;2024-01-06T02:43:42;94256.84;;;5.20;74.06
9774;BME280;4926;42.670;23.316;2024-01-06T02:46:08;94248.78;;;5.28;73.95
9774;BME280;4926;42.670;23.316;2024-01-06T02:48:33;94259.94;;;5.07;75.14
9774;BME280;4926;42.670;23.316;2024-01-06T02:50:59;94249.97;;;5.21;74.03
9774;BME280;4926;42.670;23.316;2024-01-06T02:53:24;94255.13;;;5.33;74.01
9774;BME280;4926;42.670;23.316;2024-01-06T02:55:50;94246.41;;;5.43;73.49
9774;BME280;4926;42.670;23.316;2024-01-06T02:58:15;94246.66;;;5.27;75.07
9774;BME280;4926;42.670;23.316;2024-01-06T03:00:41;94232.34;;;5.34;74.17
9774;BME280;4926;42.670;23.316;2024-01-06T03:03:06;94227.16;;;5.47;74.75
9774;BME280;4926;42.670;23.316;2024-01-06T03:05:31;94224.16;;;5.39;73.35
9774;BME280;4926;42.670;23.316;2024-01-06T03:08:00;94221.22;;;5.30;73.82
9774;BME280;4926;42.670;23.316;2024-01-06T03:10:26;94224.34;;;5.19;72.88
9774;BME280;4926;42.670;23.316;2024-01-06T03:12:56;94229.00;;;5.12;73.20
9774;BME280;4926;42.670;23.316;2024-01-06T03:15:22;94219.28;;;4.85;73.45
9774;BME280;4926;42.670;23.316;2024-01-06T03:17:50;94228.16;;;4.82;72.68
9774;BME280;4926;42.670;23.316;2024-01-06T03:20:16;94229.41;;;4.77;70.15
9774;BME280;4926;42.670;23.316;2024-01-06T03:22:41;94215.25;;;4.64;72.17
9774;BME280;4926;42.670;23.316;2024-01-06T03:25:07;94216.72;;;4.68;70.57
9774;BME280;4926;42.670;23.316;2024-01-06T03:27:33;94211.19;;;4.68;71.49
9774;BME280;4926;42.670;23.316;2024-01-06T03:29:58;94232.06;;;4.73;72.51
9774;BME280;4926;42.670;23.316;2024-01-06T03:32:24;94223.84;;;4.75;71.16
9774;BME280;4926;42.670;23.316;2024-01-06T03:34:49;94220.38;;;4.74;71.68
9774;BME280;4926;42.670;23.316;2024-01-06T03:37:15;94225.94;;;4.76;70.49
9774;BME280;4926;42.670;23.316;2024-01-06T03:39:40;94205.84;;;4.74;71.43
9774;BME280;4926;42.670;23.316;2024-01-06T03:42:09;94210.34;;;4.87;70.31
9774;BME280;4926;42.670;23.316;2024-01-06T03:44:34;94208.75;;;4.80;71.19
9774;BME280;4926;42.670;23.316;2024-01-06T03:47:00;94213.34;;;4.95;69.93
9774;BME280;4926;42.670;23.316;2024-01-06T03:49:29;94217.38;;;4.92;68.45
9774;BME280;4926;42.670;23.316;2024-01-06T03:51:54;94218.06;;;4.90;68.61
9774;BME280;4926;42.670;23.316;2024-01-06T03:54:20;94203.94;;;5.04;68.12
9774;BME280;4926;42.670;23.316;2024-01-06T03:56:45;94202.00;;;5.11;69.09
9774;BME280;4926;42.670;23.316;2024-01-06T03:59:11;94209.22;;;5.22;69.20
9774;BME280;4926;42.670;23.316;2024-01-06T04:01:36;94211.00;;;5.37;68.15
9774;BME280;4926;42.670;23.316;2024-01-06T04:04:05;94217.94;;;5.38;67.93
9774;BME280;4926;42.670;23.316;2024-01-06T04:06:31;94213.63;;;5.31;69.83
9774;BME280;4926;42.670;23.316;2024-01-06T04:09:00;94215.03;;;5.32;68.79
9774;BME280;4926;42.670;23.316;2024-01-06T04:11:26;94209.59;;;5.36;68.92
9774;BME280;4926;42.670;23.316;2024-01-06T04:13:51;94208.19;;;5.35;68.79
9774;BME280;4926;42.670;23.316;2024-01-06T04:16:17;94209.22;;;5.22;68.86
9774;BME280;4926;42.670;23.316;2024-01-06T04:18:42;94197.09;;;5.33;68.46
9774;BME280;4926;42.670;23.316;2024-01-06T04:21:08;94204.50;;;5.26;69.15
9774;BME280;4926;42.670;23.316;2024-01-06T04:23:34;94212.03;;;5.24;68.40
9774;BME280;4926;42.670;23.316;2024-01-06T04:26:02;94207.91;;;5.25;67.70
9774;BME280;4926;42.670;23.316;2024-01-06T04:28:30;94202.25;;;5.19;68.56
9774;BME280;4926;42.670;23.316;2024-01-06T04:30:55;94216.44;;;5.33;68.19
9774;BME280;4926;42.670;23.316;2024-01-06T04:33:21;94221.41;;;5.39;67.52
9774;BME280;4926;42.670;23.316;2024-01-06T04:35:46;94234.38;;;5.32;68.86
9774;BME280;4926;42.670;23.316;2024-01-06T04:38:12;94236.16;;;5.47;67.53
9774;BME280;4926;42.670;23.316;2024-01-06T04:40:40;94238.38;;;5.53;67.90
9774;BME280;4926;42.670;23.316;2024-01-06T04:43:09;94227.53;;;5.61;67.50
9774;BME280;4926;42.670;23.316;2024-01-06T04:45:34;94228.97;;;5.64;68.93
9774;BME280;4926;42.670;23.316;2024-01-06T04:47:59;94231.88;;;5.70;69.55
9774;BME280;4926;42.670;23.316;2024-01-06T04:50:25;94231.94;;;5.72;68.37
9774;BME280;4926;42.670;23.316;2024-01-06T04:52:50;94230.38;;;5.65;69.97
9774;BME280;4926;42.670;23.316;2024-01-06T04:55:16;94233.53;;;5.53;69.52
9774;BME280;4926;42.670;23.316;2024-01-06T04:57:42;94240.59;;;5.58;69.24
9774;BME280;4926;42.670;23.316;2024-01-06T05:00:07;94237.72;;;5.54;70.15
9774;BME280;4926;42.670;23.316;2024-01-06T05:02:33;94239.66;;;5.50;69.38
9774;BME280;4926;42.670;23.316;2024-01-06T05:04:59;94213.59;;;5.57;70.66
9774;BME280;4926;42.670;23.316;2024-01-06T05:07:24;94229.69;;;5.39;69.30
9774;BME280;4926;42.670;23.316;2024-01-06T05:09:50;94198.22;;;5.24;69.88
9774;BME280;4926;42.670;23.316;2024-01-06T05:12:16;94212.47;;;5.14;71.41
9774;BME280;4926;42.670;23.316;2024-01-06T05:14:41;94210.81;;;5.03;71.47
9774;BME280;4926;42.670;23.316;2024-01-06T05:17:06;94205.88;;;4.99;70.26
9774;BME280;4926;42.670;23.316;2024-01-06T05:19:34;94206.78;;;5.08;69.99
9774;BME280;4926;42.670;23.316;2024-01-06T05:21:59;94215.25;;;4.88;70.13
9774;BME280;4926;42.670;23.316;2024-01-06T05:24:25;94191.81;;;4.91;70.05
9774;BME280;4926;42.670;23.316;2024-01-06T05:26:50;94184.84;;;4.88;70.89
9774;BME280;4926;42.670;23.316;2024-01-06T05:29:16;94205.25;;;4.77;69.59
9774;BME280;4926;42.670;23.316;2024-01-06T05:31:41;94173.53;;;4.54;71.00
9774;BME280;4926;42.670;23.316;2024-01-06T05:34:07;94190.38;;;4.64;70.01
9774;BME280;4926;42.670;23.316;2024-01-06T05:36:32;94186.28;;;4.42;70.81
9774;BME280;4926;42.670;23.316;2024-01-06T05:38:58;94180.25;;;4.47;71.80
9774;BME280;4926;42.670;23.316;2024-01-06T05:41:25;94189.00;;;4.40;72.35
9774;BME280;4926;42.670;23.316;2024-01-06T05:43:51;94189.41;;;4.30;72.21
9774;BME280;4926;42.670;23.316;2024-01-06T05:46:26;94192.59;;;4.44;71.63
9774;BME280;4926;42.670;23.316;2024-01-06T05:48:51;94185.41;;;4.35;71.04
9774;BME280;4926;42.670;23.316;2024-01-06T05:51:17;94184.47;;;4.50;71.13
9774;BME280;4926;42.670;23.316;2024-01-06T05:53:42;94182.00;;;4.60;71.81
9774;BME280;4926;42.670;23.316;2024-01-06T05:56:08;94192.72;;;4.48;71.17
9774;BME280;4926;42.670;23.316;2024-01-06T05:58:35;94185.06;;;4.23;70.14
9774;BME280;4926;42.670;23.316;2024-01-06T06:01:00;94172.22;;;4.32;70.18
9774;BME280;4926;42.670;23.316;2024-01-06T06:03:26;94184.94;;;4.43;70.79
9774;BME280;4926;42.670;23.316;2024-01-06T06:05:52;94183.47;;;4.40;69.53
9774;BME280;4926;42.670;23.316;2024-01-06T06:08:18;94181.00;;;4.50;70.01
9774;BME280;4926;42.670;23.316;2024-01-06T06:10:43;94183.66;;;4.46;69.19
9774;BME280;4926;42.670;23.316;2024-01-06T06:13:29;94169.97;;;4.50;68.87
9774;BME280;4926;42.670;23.316;2024-01-06T06:15:55;94179.31;;;4.62;68.70
9774;BME280;4926;42.670;23.316;2024-01-06T06:18:21;94181.66;;;4.48;69.13
9774;BME280;4926;42.670;23.316;2024-01-06T06:20:47;94171.56;;;4.57;69.04
9774;BME280;4926;42.670;23.316;2024-01-06T06:23:16;94170.53;;;4.70;69.22
9774;BME280;4926;42.670;23.316;2024-01-06T06:25:41;94189.50;;;4.82;69.54
9774;BME280;4926;42.670;23.316;2024-01-06T06:28:07;94194.16;;;4.75;68.04
9774;BME280;4926;42.670;23.316;2024-01-06T06:30:32;94183.97;;;4.82;68.81
9774;BME280;4926;42.670;23.316;2024-01-06T06:32:58;94192.91;;;4.80;69.75
9774;BME280;4926;42.670;23.316;2024-01-06T06:35:24;94191.56;;;4.81;68.92
9774;BME280;4926;42.670;23.316;2024-01-06T06:37:56;94177.38;;;4.93;68.64
9774;BME280;4926;42.670;23.316;2024-01-06T06:40:21;94180.41;;;5.03;67.77
9774;BME280;4926;42.670;23.316;2024-01-06T06:42:47;94206.47;;;4.96;67.46
9774;BME280;4926;42.670;23.316;2024-01-06T06:45:13;94199.69;;;5.01;69.19
9774;BME280;4926;42.670;23.316;2024-01-06T06:47:38;94199.13;;;5.07;68.70
9774;BME280;4926;42.670;23.316;2024-01-06T06:50:07;94193.41;;;5.24;75.35
9774;BME280;4926;42.670;23.316;2024-01-06T06:52:32;94185.63;;;5.45;68.67
9774;BME280;4926;42.670;23.316;2024-01-06T06:54:58;94185.72;;;5.49;66.20
9774;BME280;4926;42.670;23.316;2024-01-06T06:57:23;94209.38;;;5.28;67.20
9774;BME280;4926;42.670;23.316;2024-01-06T06:59:49;94173.00;;;5.38;79.54
9774;BME280;4926;42.670;23.316;2024-01-06T07:02:15;94173.06;;;5.40;66.88
9774;BME280;4926;42.670;23.316;2024-01-06T07:04:40;94200.38;;;5.27;67.58
9774;BME280;4926;42.670;23.316;2024-01-06T07:07:06;94172.09;;;5.29;67.75
9774;BME280;4926;42.670;23.316;2024-01-06T07:09:31;94198.88;;;5.22;67.68
9774;BME280;4926;42.670;23.316;2024-01-06T07:11:57;94175.75;;;5.10;67.70
9774;BME280;4926;42.670;23.316;2024-01-06T07:14:22;94186.16;;;5.11;67.26
9774;BME280;4926;42.670;23.316;2024-01-06T07:16:49;94187.88;;;4.98;69.04
9774;BME280;4926;42.670;23.316;2024-01-06T07:19:15;94181.44;;;5.16;68.70
9774;BME280;4926;42.670;23.316;2024-01-06T07:21:40;94184.84;;;5.14;67.03
9774;BME280;4926;42.670;23.316;2024-01-06T07:24:06;94177.97;;;5.15;67.49
9774;BME280;4926;42.670;23.316;2024-01-06T07:26:31;94195.78;;;5.10;68.83
9774;BME280;4926;42.670;23.316;2024-01-06T07:28:57;94174.63;;;5.19;69.40
9774;BME280;4926;42.670;23.316;2024-01-06T07:31:23;94186.63;;;5.29;67.43
9774;BME280;4926;42.670;23.316;2024-01-06T07:33:48;94169.44;;;5.33;68.70
9774;BME280;4926;42.670;23.316;2024-01-06T07:36:14;94154.50;;;5.44;67.66
9774;BME280;4926;42.670;23.316;2024-01-06T07:38:39;94182.59;;;5.34;67.75
9774;BME280;4926;42.670;23.316;2024-01-06T07:41:07;94173.16;;;5.44;68.04
9774;BME280;4926;42.670;23.316;2024-01-06T07:43:33;94168.19;;;5.38;67.58
9774;BME280;4926;42.670;23.316;2024-01-06T07:46:01;94162.16;;;5.46;67.66
9774;BME280;4926;42.670;23.316;2024-01-06T07:48:28;94173.81;;;5.70;66.76
9774;BME280;4926;42.670;23.316;2024-01-06T07:50:54;94173.56;;;5.60;66.30
9774;BME280;4926;42.670;23.316;2024-01-06T07:53:25;94182.16;;;5.72;66.68
9774;BME280;4926;42.670;23.316;2024-01-06T07:55:50;94168.56;;;5.82;66.72
9774;BME280;4926;42.670;23.316;2024-01-06T07:58:16;94181.78;;;5.86;66.13
9774;BME280;4926;42.670;23.316;2024-01-06T08:00:41;94180.38;;;5.85;66.66
9774;BME280;4926;42.670;23.316;2024-01-06T08:03:07;94184.34;;;6.05;66.74
9774;BME280;4926;42.670;23.316;2024-01-06T08:05:32;94177.75;;;6.21;65.99
9774;BME280;4926;42.670;23.316;2024-01-06T08:07:58;94167.66;;;6.33;64.80
9774;BME280;4926;42.670;23.316;2024-01-06T08:10:26;94198.75;;;6.32;66.48
9774;BME280;4926;42.670;23.316;2024-01-06T08:12:51;94181.09;;;6.47;64.77
9774;BME280;4926;42.670;23.316;2024-01-06T08:15:17;94174.09;;;6.42;65.52
9774;BME280;4926;42.670;23.316;2024-01-06T08:17:42;94184.34;;;6.37;64.66
9774;BME280;4926;42.670;23.316;2024-01-06T08:20:08;94158.44;;;6.23;65.16
9774;BME280;4926;42.670;23.316;2024-01-06T08:22:34;94154.81;;;6.48;63.98
9774;BME280;4926;42.670;23.316;2024-01-06T08:24:59;94181.28;;;6.55;64.32
9774;BME280;4926;42.670;23.316;2024-01-06T08:27:31;94162.00;;;6.61;62.98
9774;BME280;4926;42.670;23.316;2024-01-06T08:29:56;94174.66;;;6.70;62.24
9774;BME280;4926;42.670;23.316;2024-01-06T08:32:27;94171.25;;;6.72;63.18
9774;BME280;4926;42.670;23.316;2024-01-06T08:34:53;94163.28;;;6.90;63.29
9774;BME280;4926;42.670;23.316;2024-01-06T08:37:18;94169.66;;;6.97;62.75
9774;BME280;4926;42.670;23.316;2024-01-06T08:39:43;94177.34;;;7.00;62.66
9774;BME280;4926;42.670;23.316;2024-01-06T08:42:09;94169.22;;;7.10;63.01
9774;BME280;4926;42.670;23.316;2024-01-06T08:44:34;94173.50;;;7.18;61.90
9774;BME280;4926;42.670;23.316;2024-01-06T08:47:00;94178.44;;;7.23;62.61
9774;BME280;4926;42.670;23.316;2024-01-06T08:49:25;94179.63;;;7.12;61.60
9774;BME280;4926;42.670;23.316;2024-01-06T08:51:51;94168.03;;;7.22;61.43
9774;BME280;4926;42.670;23.316;2024-01-06T08:54:16;94182.38;;;7.10;60.76
9774;BME280;4926;42.670;23.316;2024-01-06T08:56:42;94165.84;;;7.16;61.32
9774;BME280;4926;42.670;23.316;2024-01-06T08:59:07;94175.22;;;6.99;61.96
9774;BME280;4926;42.670;23.316;2024-01-06T09:01:33;94156.00;;;7.09;63.02
9774;BME280;4926;42.670;23.316;2024-01-06T09:04:01;94165.88;;;7.18;62.16
9774;BME280;4926;42.670;23.316;2024-01-06T09:06:27;94170.19;;;7.25;61.38
9774;BME280;4926;42.670;23.316;2024-01-06T09:08:53;94130.03;;;7.30;61.93
9774;BME280;4926;42.670;23.316;2024-01-06T09:11:18;94154.25;;;7.26;60.91
9774;BME280;4926;42.670;23.316;2024-01-06T09:13:43;94152.88;;;6.91;62.95
9774;BME280;4926;42.670;23.316;2024-01-06T09:16:09;94097.69;;;7.03;62.42
9774;BME280;4926;42.670;23.316;2024-01-06T09:18:36;94149.53;;;6.96;62.05
9774;BME280;4926;42.670;23.316;2024-01-06T09:21:01;94131.06;;;7.09;63.07
9774;BME280;4926;42.670;23.316;2024-01-06T09:23:28;94151.03;;;7.01;62.88
9774;BME280;4926;42.670;23.316;2024-01-06T09:25:57;94112.41;;;7.11;62.39
9774;BME280;4926;42.670;23.316;2024-01-06T09:28:23;94109.88;;;7.26;61.73
9774;BME280;4926;42.670;23.316;2024-01-06T09:30:49;94138.06;;;7.12;62.37
9774;BME280;4926;42.670;23.316;2024-01-06T09:33:18;94109.09;;;7.21;62.76
9774;BME280;4926;42.670;23.316;2024-01-06T09:35:44;94118.81;;;7.22;62.64
9774;BME280;4926;42.670;23.316;2024-01-06T09:38:09;94092.56;;;7.27;62.86
9774;BME280;4926;42.670;23.316;2024-01-06T09:40:41;94105.31;;;7.42;63.39
9774;BME280;4926;42.670;23.316;2024-01-06T09:43:09;94110.13;;;7.40;63.01
9774;BME280;4926;42.670;23.316;2024-01-06T09:45:35;94095.03;;;7.51;62.59
9774;BME280;4926;42.670;23.316;2024-01-06T09:48:14;94088.13;;;7.52;61.63
9774;BME280;4926;42.670;23.316;2024-01-06T09:50:42;94106.94;;;7.60;61.28
9774;BME280;4926;42.670;23.316;2024-01-06T09:53:10;94095.88;;;7.62;62.23
9774;BME280;4926;42.670;23.316;2024-01-06T09:55:36;94068.28;;;7.70;61.60
9774;BME280;4926;42.670;23.316;2024-01-06T09:58:02;94086.09;;;7.55;62.13
9774;BME280;4926;42.670;23.316;2024-01-06T10:00:28;94084.59;;;7.50;62.44
9774;BME280;4926;42.670;23.316;2024-01-06T10:02:54;94083.34;;;7.57;62.65
9774;BME280;4926;42.670;23.316;2024-01-06T10:05:20;94082.66;;;7.58;63.63
9774;BME280;4926;42.670;23.316;2024-01-06T10:07:46;94071.03;;;7.68;63.58
9774;BME280;4926;42.670;23.316;2024-01-06T10:10:13;94070.53;;;7.81;62.61
9774;BME280;4926;42.670;23.316;2024-01-06T10:12:40;94049.91;;;7.95;62.13
9774;BME280;4926;42.670;23.316;2024-01-06T10:15:09;94061.75;;;7.99;61.52
9774;BME280;4926;42.670;23.316;2024-01-06T10:17:39;94066.56;;;7.95;61.41
9774;BME280;4926;42.670;23.316;2024-01-06T10:20:12;94028.47;;;8.01;61.83
9774;BME280;4926;42.670;23.316;2024-01-06T10:22:41;94046.41;;;7.94;61.77
9774;BME280;4926;42.670;23.316;2024-01-06T10:25:10;94051.09;;;7.81;61.64
9774;BME280;4926;42.670;23.316;2024-01-06T10:27:37;94043.47;;;7.82;62.25
9774;BME280;4926;42.670;23.316;2024-01-06T10:30:03;94031.03;;;7.87;62.31
9774;BME280;4926;42.670;23.316;2024-01-06T10:32:33;94028.94;;;7.83;61.81
9774;BME280;4926;42.670;23.316;2024-01-06T10:34:59;94033.13;;;7.87;62.30
9774;BME280;4926;42.670;23.316;2024-01-06T10:37:27;94018.03;;;7.98;61.33
9774;BME280;4926;42.670;23.316;2024-01-06T10:42:34;94017.34;;;8.01;61.44
9774;BME280;4926;42.670;23.316;2024-01-06T10:45:01;94008.50;;;8.15;59.71
9774;BME280;4926;42.670;23.316;2024-01-06T10:47:30;94009.38;;;8.28;60.23
9774;BME280;4926;42.670;23.316;2024-01-06T10:50:00;94010.19;;;8.36;58.91
9774;BME280;4926;42.670;23.316;2024-01-06T10:52:27;94006.09;;;8.45;58.10
9774;BME280;4926;42.670;23.316;2024-01-06T10:54:59;93993.03;;;8.56;57.15
9774;BME280;4926;42.670;23.316;2024-01-06T10:57:29;93991.63;;;8.55;57.94
9774;BME280;4926;42.670;23.316;2024-01-06T10:59:58;93997.75;;;8.41;57.61
9774;BME280;4926;42.670;23.316;2024-01-06T11:02:26;93979.59;;;8.34;58.84
9774;BME280;4926;42.670;23.316;2024-01-06T11:04:51;93987.81;;;8.26;57.74
9774;BME280;4926;42.670;23.316;2024-01-06T11:07:19;93970.88;;;8.04;59.38
9774;BME280;4926;42.670;23.316;2024-01-06T11:10:15;93969.66;;;8.17;57.89
9774;BME280;4926;42.670;23.316;2024-01-06T11:12:42;93982.84;;;8.16;57.19
9774;BME280;4926;42.670;23.316;2024-01-06T11:15:08;93982.25;;;8.24;58.36
9774;BME280;4926;42.670;23.316;2024-01-06T11:17:55;93955.75;;;8.13;57.93
9774;BME280;4926;42.670;23.316;2024-01-06T11:20:21;93960.47;;;8.04;57.73
9774;BME280;4926;42.670;23.316;2024-01-06T11:22:47;93957.47;;;7.86;57.89
9774;BME280;4926;42.670;23.316;2024-01-06T11:25:15;93958.91;;;7.89;58.69
9774;BME280;4926;42.670;23.316;2024-01-06T11:27:43;93949.19;;;7.88;58.79
9774;BME280;4926;42.670;23.316;2024-01-06T11:30:22;93936.16;;;8.03;58.15
9774;BME280;4926;42.670;23.316;2024-01-06T11:32:53;93946.72;;;8.16;58.29
9774;BME280;4926;42.670;23.316;2024-01-06T11:35:21;93943.97;;;8.18;57.47
9774;BME280;4926;42.670;23.316;2024-01-06T11:45:28;93872.25;;;8.65;55.54
9774;BME280;4926;42.670;23.316;2024-01-06T11:48:05;93913.97;;;8.73;55.42
9774;BME280;4926;42.670;23.316;2024-01-06T11:50:32;93905.06;;;8.83;56.42
9774;BME280;4926;42.670;23.316;2024-01-06T11:53:00;93881.53;;;8.96;56.09
9774;BME280;4926;42.670;23.316;2024-01-06T11:55:26;93891.94;;;8.96;54.66
9774;BME280;4926;42.670;23.316;2024-01-06T11:57:57;93873.19;;;9.02;56.00
9774;BME280;4926;42.670;23.316;2024-01-06T12:00:27;93881.59;;;9.08;55.51
9774;BME280;4926;42.670;23.316;2024-01-06T12:03:00;93869.75;;;9.04;55.73
9774;BME280;4926;42.670;23.316;2024-01-06T12:05:27;93878.91;;;9.22;55.69
9774;BME280;4926;42.670;23.316;2024-01-06T12:07:54;93869.88;;;9.28;53.46
9774;BME280;4926;42.670;23.316;2024-01-06T12:10:21;93858.03;;;9.21;53.93
9774;BME280;4926;42.670;23.316;2024-01-06T12:13:06;93840.69;;;9.31;54.43
9774;BME280;4926;42.670;23.316;2024-01-06T12:15:36;93831.63;;;9.29;53.71
9774;BME280;4926;42.670;23.316;2024-01-06T12:18:07;93825.38;;;9.30;54.53
9774;BME280;4926;42.670;23.316;2024-01-06T12:20:32;93838.63;;;9.34;53.87
9774;BME280;4926;42.670;23.316;2024-01-06T12:22:58;93840.75;;;9.39;54.69
9774;BME280;4926;42.670;23.316;2024-01-06T12:25:26;93869.31;;;9.48;54.60
9774;BME280;4926;42.670;23.316;2024-01-06T12:27:53;93865.75;;;9.33;54.48
9774;BME280;4926;42.670;23.316;2024-01-06T12:30:21;93869.25;;;9.36;54.52
9774;BME280;4926;42.670;23.316;2024-01-06T12:32:49;93867.19;;;9.38;55.16
9774;BME280;4926;42.670;23.316;2024-01-06T12:35:16;93859.56;;;9.49;54.48
9774;BME280;4926;42.670;23.316;2024-01-06T12:37:42;93858.88;;;9.50;54.03
9774;BME280;4926;42.670;23.316;2024-01-06T12:40:08;93869.31;;;9.48;55.10
9774;BME280;4926;42.670;23.316;2024-01-06T12:42:34;93871.41;;;9.55;55.19
9774;BME280;4926;42.670;23.316;2024-01-06T12:45:01;93830.38;;;9.56;55.17
9774;BME280;4926;42.670;23.316;2024-01-06T12:47:27;93826.19;;;9.49;55.94
9774;BME280;4926;42.670;23.316;2024-01-06T12:49:53;93835.72;;;9.13;56.31
9774;BME280;4926;42.670;23.316;2024-01-06T12:52:18;93828.09;;;9.18;56.83
9774;BME280;4926;42.670;23.316;2024-01-06T12:54:44;93823.97;;;9.23;55.89
9774;BME280;4926;42.670;23.316;2024-01-06T12:57:09;93830.25;;;9.30;56.75
9774;BME280;4926;42.670;23.316;2024-01-06T12:59:35;93823.97;;;9.27;56.44
9774;BME280;4926;42.670;23.316;2024-01-06T13:02:01;93822.59;;;9.26;56.40
9774;BME280;4926;42.670;23.316;2024-01-06T13:04:26;93827.50;;;9.36;56.30
9774;BME280;4926;42.670;23.316;2024-01-06T13:06:52;93835.09;;;9.23;56.31
9774;BME280;4926;42.670;23.316;2024-01-06T13:09:18;93842.06;;;9.26;55.29
9774;BME280;4926;42.670;23.316;2024-01-06T13:11:52;93830.88;;;9.14;56.50
9774;BME280;4926;42.670;23.316;2024-01-06T13:14:18;93828.06;;;9.10;56.59
9774;BME280;4926;42.670;23.316;2024-01-06T13:16:44;93830.88;;;9.18;56.47
9774;BME280;4926;42.670;23.316;2024-01-06T13:19:09;93826.06;;;9.22;55.70
9774;BME280;4926;42.670;23.316;2024-01-06T13:21:35;93810.09;;;9.33;56.18
9774;BME280;4926;42.670;23.316;2024-01-06T13:24:01;93802.47;;;9.36;55.37
9774;BME280;4926;42.670;23.316;2024-01-06T13:26:31;93819.94;;;9.50;54.38
9774;BME280;4926;42.670;23.316;2024-01-06T13:28:57;93799.72;;;9.44;53.85